sensor_id;sensor_type;location;lat;lon;timestamp;pressure;altitude;pressure_sealevel;temperature;humidity
49297;BME280;35163;48.878;18.040;2023-10-09T00:02:11;99351.09;;;12.05;47.78
49297;BME280;35163;48.878;18.040;2023-10-09T00:04:38;99349.41;;;12.02;47.83
49297;BME280;35163;48.878;18.040;2023-10-09T00:07:09;99339.09;;;12.00;48.31
49297;BME280;35163;48.878;18.040;2023-10-09T00:09:38;99339.94;;;12.01;48.59
49297;BME280;35163;48.878;18.040;2023-10-09T00:12:18;99333.97;;;11.97;49.17
49297;BME280;35163;48.878;18.040;2023-10-09T00:14:50;99333.13;;;11.97;49.15
49297;BME280;35163;48.878;18.040;2023-10-09T00:17:22;99326.25;;;11.96;49.01
49297;BME280;35163;48.878;18.040;2023-10-09T00:19:51;99339.13;;;11.99;49.40
49297;BME280;35163;48.878;18.040;2023-10-09T00:22:19;99337.47;;;11.96;49.48
49297;BME280;35163;48.878;18.040;2023-10-09T00:24:57;99338.38;;;11.94;49.00
49297;BME280;35163;48.878;18.040;2023-10-09T00:27:38;99343.56;;;11.94;49.42
49297;BME280;35163;48.878;18.040;2023-10-09T00:30:13;99340.06;;;11.96;49.91
49297;BME280;35163;48.878;18.040;2023-10-09T00:32:49;99333.19;;;11.94;49.88
49297;BME280;35163;48.878;18.040;2023-10-09T00:35:27;99333.94;;;11.99;49.92
49297;BME280;35163;48.878;18.040;2023-10-09T00:38:04;99318.31;;;12.02;50.17
49297;BME280;35163;48.878;18.040;2023-10-09T00:40:47;99331.28;;;12.02;50.09
49297;BME280;35163;48.878;18.040;2023-10-09T00:43:22;99330.44;;;12.01;50.05
49297;BME280;35163;48.878;18.040;2023-10-09T00:45:58;99322.72;;;12.00;49.97
49297;BME280;35163;48.878;18.040;2023-10-09T00:48:56;99308.06;;;11.97;49.81
49297;BME280;35163;48.878;18.040;2023-10-09T00:51:24;99303.75;;;11.98;50.07
49297;BME280;35163;48.878;18.040;2023-10-09T00:53:57;99296.84;;;11.97;49.71
49297;BME280;35163;48.878;18.040;2023-10-09T00:56:27;99298.63;;;11.95;50.07
49297;BME280;35163;48.878;18.040;2023-10-09T00:58:57;99296.03;;;11.95;50.40
49297;BME280;35163;48.878;18.040;2023-10-09T01:01:38;99291.66;;;11.98;50.22
49297;BME280;35163;48.878;18.040;2023-10-09T01:04:07;99278.78;;;11.94;50.50
49297;BME280;35163;48.878;18.040;2023-10-09T01:06:40;99291.66;;;11.97;50.32
49297;BME280;35163;48.878;18.040;2023-10-09T01:09:12;99290.03;;;11.93;50.26
49297;BME280;35163;48.878;18.040;2023-10-09T01:11:41;99286.53;;;11.94;50.15
49297;BME280;35163;48.878;18.040;2023-10-09T01:14:26;99283.09;;;11.95;49.54
49297;BME280;35163;48.878;18.040;2023-10-09T01:16:53;99278.03;;;11.88;49.98
49297;BME280;35163;48.878;18.040;2023-10-09T01:19:21;99272.00;;;11.88;49.91
49297;BME280;35163;48.878;18.040;2023-10-09T01:21:51;99278.97;;;11.86;50.29
49297;BME280;35163;48.878;18.040;2023-10-09T01:24:18;99269.47;;;11.85;50.64
49297;BME280;35163;48.878;18.040;2023-10-09T01:26:49;99280.69;;;11.85;51.80
49297;BME280;35163;48.878;18.040;2023-10-09T01:29:17;99271.22;;;11.84;51.24
49297;BME280;35163;48.878;18.040;2023-10-09T01:31:52;99280.66;;;11.87;50.46
49297;BME280;35163;48.878;18.040;2023-10-09T01:34:23;99259.91;;;11.87;50.74
49297;BME280;35163;48.878;18.040;2023-10-09T01:36:52;99259.09;;;11.85;51.61
49297;BME280;35163;48.878;18.040;2023-10-09T01:39:23;99253.94;;;11.83;52.05
49297;BME280;35163;48.878;18.040;2023-10-09T01:42:09;99243.53;;;11.86;51.55
49297;BME280;35163;48.878;18.040;2023-10-09T01:44:37;99227.13;;;11.86;51.24
49297;BME280;35163;48.878;18.040;2023-10-09T01:47:10;99233.22;;;11.83;50.53
49297;BME280;35163;48.878;18.040;2023-10-09T01:49:48;99228.03;;;11.83;50.23
49297;BME280;35163;48.878;18.040;2023-10-09T01:52:19;99209.91;;;11.83;50.12
49297;BME280;35163;48.878;18.040;2023-10-09T01:54:50;99210.81;;;11.82;50.01
49297;BME280;35163;48.878;18.040;2023-10-09T01:57:19;99214.25;;;11.83;50.47
49297;BME280;35163;48.878;18.040;2023-10-09T01:59:50;99213.31;;;11.85;52.01
49297;BME280;35163;48.878;18.040;2023-10-09T02:02:21;99208.22;;;11.82;51.53
49297;BME280;35163;48.878;18.040;2023-10-09T02:05:03;99214.31;;;11.81;51.46
49297;BME280;35163;48.878;18.040;2023-10-09T02:07:39;99219.53;;;11.79;51.77
49297;BME280;35163;48.878;18.040;2023-10-09T02:10:20;99224.59;;;11.84;52.13
49297;BME280;35163;48.878;18.040;2023-10-09T02:13:00;99221.94;;;11.86;52.06
49297;BME280;35163;48.878;18.040;2023-10-09T02:15:28;99220.31;;;11.82;51.89
49297;BME280;35163;48.878;18.040;2023-10-09T02:18:17;99222.00;;;11.84;51.83
49297;BME280;35163;48.878;18.040;2023-10-09T02:20:45;99219.47;;;11.81;52.30
49297;BME280;35163;48.878;18.040;2023-10-09T02:23:13;99221.06;;;11.87;52.39
49297;BME280;35163;48.878;18.040;2023-10-09T02:25:43;99211.59;;;11.86;52.61
49297;BME280;35163;48.878;18.040;2023-10-09T02:28:10;99215.09;;;11.83;51.68
49297;BME280;35163;48.878;18.040;2023-10-09T02:30:46;99209.06;;;11.83;51.57
49297;BME280;35163;48.878;18.040;2023-10-09T02:33:18;99215.06;;;11.85;51.40
49297;BME280;35163;48.878;18.040;2023-10-09T02:35:54;99202.88;;;11.88;52.37
49297;BME280;35163;48.878;18.040;2023-10-09T02:38:21;99205.09;;;12.04;52.20
49297;BME280;35163;48.878;18.040;2023-10-09T02:40:50;99202.97;;;12.22;50.90
49297;BME280;35163;48.878;18.040;2023-10-09T02:43:30;99210.34;;;12.37;51.92
49297;BME280;35163;48.878;18.040;2023-10-09T02:46:03;99211.00;;;12.46;51.10
49297;BME280;35163;48.878;18.040;2023-10-09T02:48:48;99195.09;;;12.58;52.19
49297;BME280;35163;48.878;18.040;2023-10-09T02:51:20;99183.59;;;12.69;50.42
49297;BME280;35163;48.878;18.040;2023-10-09T02:53:53;99190.22;;;12.78;49.82
49297;BME280;35163;48.878;18.040;2023-10-09T02:56:22;99181.38;;;12.85;49.23
49297;BME280;35163;48.878;18.040;2023-10-09T02:59:06;99185.41;;;12.95;48.64
49297;BME280;35163;48.878;18.040;2023-10-09T03:01:34;99178.25;;;13.04;48.80
49297;BME280;35163;48.878;18.040;2023-10-09T03:04:01;99159.06;;;13.09;48.63
49297;BME280;35163;48.878;18.040;2023-10-09T03:06:33;99133.75;;;13.16;48.17
49297;BME280;35163;48.878;18.040;2023-10-09T03:09:10;99115.31;;;13.24;48.34
49297;BME280;35163;48.878;18.040;2023-10-09T03:11:45;99098.75;;;13.28;48.05
49297;BME280;35163;48.878;18.040;2023-10-09T03:14:13;99116.78;;;13.33;46.94
49297;BME280;35163;48.878;18.040;2023-10-09T03:16:40;99119.16;;;13.41;46.56
49297;BME280;35163;48.878;18.040;2023-10-09T03:19:07;99115.44;;;13.48;47.29
49297;BME280;35163;48.878;18.040;2023-10-09T03:21:34;99110.94;;;13.55;47.37
49297;BME280;35163;48.878;18.040;2023-10-09T03:24:00;99121.19;;;13.59;47.36
49297;BME280;35163;48.878;18.040;2023-10-09T03:26:31;99123.53;;;13.67;47.68
49297;BME280;35163;48.878;18.040;2023-10-09T03:28:58;99141.53;;;13.73;47.31
49297;BME280;35163;48.878;18.040;2023-10-09T03:31:28;99138.88;;;13.75;47.48
49297;BME280;35163;48.878;18.040;2023-10-09T03:34:01;99117.94;;;13.80;46.73
49297;BME280;35163;48.878;18.040;2023-10-09T03:36:29;99130.88;;;13.81;46.56
49297;BME280;35163;48.878;18.040;2023-10-09T03:38:57;99146.25;;;13.88;46.87
49297;BME280;35163;48.878;18.040;2023-10-09T03:41:34;99139.06;;;13.69;46.48
49297;BME280;35163;48.878;18.040;2023-10-09T03:44:08;99138.81;;;13.48;46.28
49297;BME280;35163;48.878;18.040;2023-10-09T03:46:35;99152.34;;;13.31;46.98
49297;BME280;35163;48.878;18.040;2023-10-09T03:49:03;99143.28;;;13.16;47.84
49297;BME280;35163;48.878;18.040;2023-10-09T03:51:37;99139.72;;;12.90;48.16
49297;BME280;35163;48.878;18.040;2023-10-09T03:54:04;99149.31;;;12.87;48.85
49297;BME280;35163;48.878;18.040;2023-10-09T03:56:35;99150.91;;;12.92;48.69
49297;BME280;35163;48.878;18.040;2023-10-09T03:59:01;99156.00;;;12.95;49.26
49297;BME280;35163;48.878;18.040;2023-10-09T04:01:31;99149.09;;;12.95;50.31
49297;BME280;35163;48.878;18.040;2023-10-09T04:04:07;99160.28;;;12.97;50.47
49297;BME280;35163;48.878;18.040;2023-10-09T04:06:37;99149.88;;;12.97;51.25
49297;BME280;35163;48.878;18.040;2023-10-09T04:09:06;99117.88;;;12.97;49.21
49297;BME280;35163;48.878;18.040;2023-10-09T04:14:13;99104.28;;;12.88;49.28
49297;BME280;35163;48.878;18.040;2023-10-09T04:17:00;99102.50;;;12.91;49.31
49297;BME280;35163;48.878;18.040;2023-10-09T04:19:32;99108.56;;;12.91;49.84
49297;BME280;35163;48.878;18.040;2023-10-09T04:22:28;99105.97;;;12.90;50.21
49297;BME280;35163;48.878;18.040;2023-10-09T04:24:57;99083.47;;;12.90;50.21
49297;BME280;35163;48.878;18.040;2023-10-09T04:27:24;99068.81;;;12.89;50.09
49297;BME280;35163;48.878;18.040;2023-10-09T04:30:02;99066.34;;;12.84;50.27
49297;BME280;35163;48.878;18.040;2023-10-09T04:32:34;99068.09;;;12.84;49.95
49297;BME280;35163;48.878;18.040;2023-10-09T04:35:01;99067.25;;;12.83;49.11
49297;BME280;35163;48.878;18.040;2023-10-09T04:37:50;99060.38;;;12.82;49.33
49297;BME280;35163;48.878;18.040;2023-10-09T04:40:27;99052.59;;;12.82;50.23
49297;BME280;35163;48.878;18.040;2023-10-09T04:43:12;99083.78;;;12.79;50.20
49297;BME280;35163;48.878;18.040;2023-10-09T04:45:47;99085.50;;;12.80;49.85
49297;BME280;35163;48.878;18.040;2023-10-09T04:48:34;99086.44;;;12.78;50.82
49297;BME280;35163;48.878;18.040;2023-10-09T04:51:05;99075.19;;;12.79;51.06
49297;BME280;35163;48.878;18.040;2023-10-09T04:53:58;99057.06;;;12.77;51.30
49297;BME280;35163;48.878;18.040;2023-10-09T04:56:40;99064.81;;;12.79;51.13
49297;BME280;35163;48.878;18.040;2023-10-09T04:59:19;99046.81;;;12.72;50.45
49297;BME280;35163;48.878;18.040;2023-10-09T05:01:51;99023.59;;;12.68;49.15
49297;BME280;35163;48.878;18.040;2023-10-09T05:04:25;99014.22;;;12.63;48.93
49297;BME280;35163;48.878;18.040;2023-10-09T05:07:13;99026.34;;;12.63;48.99
49297;BME280;35163;48.878;18.040;2023-10-09T05:10:12;99037.56;;;12.63;48.97
49297;BME280;35163;48.878;18.040;2023-10-09T05:12:44;99035.81;;;12.64;49.88
49297;BME280;35163;48.878;18.040;2023-10-09T05:15:14;99036.72;;;12.63;49.49
49297;BME280;35163;48.878;18.040;2023-10-09T05:17:41;99048.03;;;12.60;50.59
49297;BME280;35163;48.878;18.040;2023-10-09T05:20:18;99043.78;;;12.58;50.93
49297;BME280;35163;48.878;18.040;2023-10-09T05:22:54;99041.09;;;12.61;51.21
49297;BME280;35163;48.878;18.040;2023-10-09T05:25:25;99018.59;;;12.61;50.85
49297;BME280;35163;48.878;18.040;2023-10-09T05:28:11;99015.19;;;12.59;50.87
49297;BME280;35163;48.878;18.040;2023-10-09T05:30:57;99010.13;;;12.56;50.06
49297;BME280;35163;48.878;18.040;2023-10-09T05:33:35;99017.91;;;12.56;48.41
49297;BME280;35163;48.878;18.040;2023-10-09T05:36:04;99022.28;;;12.54;48.19
49297;BME280;35163;48.878;18.040;2023-10-09T05:38:44;99023.19;;;12.53;47.84
49297;BME280;35163;48.878;18.040;2023-10-09T05:41:25;99008.69;;;12.46;47.97
49297;BME280;35163;48.878;18.040;2023-10-09T05:44:14;99016.41;;;12.47;47.23
49297;BME280;35163;48.878;18.040;2023-10-09T05:46:59;99009.63;;;12.43;46.82
49297;BME280;35163;48.878;18.040;2023-10-09T05:49:45;99010.44;;;12.45;47.34
49297;BME280;35163;48.878;18.040;2023-10-09T05:52:44;99018.16;;;12.47;47.39
49297;BME280;35163;48.878;18.040;2023-10-09T05:55:20;99014.69;;;12.48;47.55
49297;BME280;35163;48.878;18.040;2023-10-09T05:58:16;99008.63;;;12.47;47.69
49297;BME280;35163;48.878;18.040;2023-10-09T06:01:01;99001.72;;;12.48;48.58
49297;BME280;35163;48.878;18.040;2023-10-09T06:03:47;98975.69;;;12.51;48.83
49297;BME280;35163;48.878;18.040;2023-10-09T06:06:36;98960.16;;;12.49;49.72
49297;BME280;35163;48.878;18.040;2023-10-09T06:09:15;98981.72;;;12.51;50.10
49297;BME280;35163;48.878;18.040;2023-10-09T06:11:46;98973.91;;;12.53;49.87
49297;BME280;35163;48.878;18.040;2023-10-09T06:14:17;98966.88;;;12.57;50.04
49297;BME280;35163;48.878;18.040;2023-10-09T06:17:13;98971.25;;;12.55;50.47
49297;BME280;35163;48.878;18.040;2023-10-09T06:19:40;98969.50;;;12.55;50.90
49297;BME280;35163;48.878;18.040;2023-10-09T06:22:10;98961.75;;;12.54;51.05
49297;BME280;35163;48.878;18.040;2023-10-09T06:24:46;98951.31;;;12.57;50.57
49297;BME280;35163;48.878;18.040;2023-10-09T06:27:19;98933.97;;;12.57;51.20
49297;BME280;35163;48.878;18.040;2023-10-09T06:29:58;98927.00;;;12.59;50.92
49297;BME280;35163;48.878;18.040;2023-10-09T06:32:43;98922.84;;;12.54;47.64
49297;BME280;35163;48.878;18.040;2023-10-09T06:35:33;98935.78;;;12.55;46.71
49297;BME280;35163;48.878;18.040;2023-10-09T06:38:02;98929.84;;;12.51;45.56
49297;BME280;35163;48.878;18.040;2023-10-09T06:40:35;98919.47;;;12.51;45.39
49297;BME280;35163;48.878;18.040;2023-10-09T06:43:23;98902.19;;;12.50;45.39
49297;BME280;35163;48.878;18.040;2023-10-09T06:45:50;98907.38;;;12.50;44.11
49297;BME280;35163;48.878;18.040;2023-10-09T06:48:43;98891.00;;;12.50;43.98
49297;BME280;35163;48.878;18.040;2023-10-09T06:51:23;98886.78;;;12.46;42.98
49297;BME280;35163;48.878;18.040;2023-10-09T06:53:57;98888.53;;;12.45;42.87
49297;BME280;35163;48.878;18.040;2023-10-09T06:56:31;98894.63;;;12.44;43.18
49297;BME280;35163;48.878;18.040;2023-10-09T06:58:59;98908.47;;;12.43;42.65
49297;BME280;35163;48.878;18.040;2023-10-09T07:01:45;98902.47;;;12.43;42.61
49297;BME280;35163;48.878;18.040;2023-10-09T07:04:30;98912.72;;;12.46;42.87
49297;BME280;35163;48.878;18.040;2023-10-09T07:06:57;98920.63;;;12.43;42.42
49297;BME280;35163;48.878;18.040;2023-10-09T07:09:25;98933.53;;;12.44;42.71
49297;BME280;35163;48.878;18.040;2023-10-09T07:12:09;98923.16;;;12.44;42.79
49297;BME280;35163;48.878;18.040;2023-10-09T07:14:40;98918.78;;;12.46;42.87
49297;BME280;35163;48.878;18.040;2023-10-09T07:17:08;98910.13;;;12.46;42.80
49297;BME280;35163;48.878;18.040;2023-10-09T07:20:11;98907.66;;;12.43;43.04
49297;BME280;35163;48.878;18.040;2023-10-09T07:22:57;98905.06;;;12.43;43.26
49297;BME280;35163;48.878;18.040;2023-10-09T07:25:41;98902.41;;;12.44;43.18
49297;BME280;35163;48.878;18.040;2023-10-09T07:28:10;98899.72;;;12.47;42.91
49297;BME280;35163;48.878;18.040;2023-10-09T07:30:56;98903.97;;;12.50;43.45
49297;BME280;35163;48.878;18.040;2023-10-09T07:33:26;98895.34;;;12.49;42.79
49297;BME280;35163;48.878;18.040;2023-10-09T07:36:03;98892.69;;;12.51;43.41
49297;BME280;35163;48.878;18.040;2023-10-09T07:38:34;98884.09;;;12.49;43.69
49297;BME280;35163;48.878;18.040;2023-10-09T07:41:04;98886.75;;;12.47;43.40
49297;BME280;35163;48.878;18.040;2023-10-09T07:43:38;98880.69;;;12.47;43.48
49297;BME280;35163;48.878;18.040;2023-10-09T07:46:07;98892.78;;;12.48;43.32
49297;BME280;35163;48.878;18.040;2023-10-09T07:48:54;98890.19;;;12.48;43.75
49297;BME280;35163;48.878;18.040;2023-10-09T07:51:23;98896.19;;;12.50;43.72
49297;BME280;35163;48.878;18.040;2023-10-09T07:53:50;98902.19;;;12.50;44.34
49297;BME280;35163;48.878;18.040;2023-10-09T07:56:24;98915.03;;;12.55;44.00
49297;BME280;35163;48.878;18.040;2023-10-09T07:58:51;98900.31;;;12.56;44.69
49297;BME280;35163;48.878;18.040;2023-10-09T08:01:18;98887.28;;;12.57;44.49
49297;BME280;35163;48.878;18.040;2023-10-09T08:03:54;98883.88;;;12.55;44.44
49297;BME280;35163;48.878;18.040;2023-10-09T08:06:24;98887.28;;;12.57;44.26
49297;BME280;35163;48.878;18.040;2023-10-09T08:09:31;98885.50;;;12.59;44.41
49297;BME280;35163;48.878;18.040;2023-10-09T08:12:15;98876.81;;;12.60;44.12
49297;BME280;35163;48.878;18.040;2023-10-09T08:15:03;98877.66;;;12.61;44.21
49297;BME280;35163;48.878;18.040;2023-10-09T08:17:56;98877.50;;;12.66;43.49
49297;BME280;35163;48.878;18.040;2023-10-09T08:20:31;98880.06;;;12.67;43.72
49297;BME280;35163;48.878;18.040;2023-10-09T08:23:16;98864.34;;;12.72;43.77
49297;BME280;35163;48.878;18.040;2023-10-09T08:26:03;98863.44;;;12.73;42.78
49297;BME280;35163;48.878;18.040;2023-10-09T08:28:40;98878.13;;;12.74;43.13
49297;BME280;35163;48.878;18.040;2023-10-09T08:31:13;98870.19;;;12.79;43.05
49297;BME280;35163;48.878;18.040;2023-10-09T08:34:01;98863.22;;;12.79;43.16
49297;BME280;35163;48.878;18.040;2023-10-09T08:36:31;98859.75;;;12.80;43.00
49297;BME280;35163;48.878;18.040;2023-10-09T08:39:03;98838.88;;;12.83;43.23
49297;BME280;35163;48.878;18.040;2023-10-09T08:41:55;98841.38;;;12.86;43.01
49297;BME280;35163;48.878;18.040;2023-10-09T08:44:25;98844.88;;;12.85;43.61
49297;BME280;35163;48.878;18.040;2023-10-09T08:46:59;98843.13;;;12.86;43.64
49297;BME280;35163;48.878;18.040;2023-10-09T08:49:26;98828.28;;;12.90;43.68
49297;BME280;35163;48.878;18.040;2023-10-09T08:51:56;98822.09;;;12.94;43.99
49297;BME280;35163;48.878;18.040;2023-10-09T08:54:30;98800.41;;;12.95;44.38
49297;BME280;35163;48.878;18.040;2023-10-09T08:57:00;98736.38;;;12.95;44.14
49297;BME280;35163;48.878;18.040;2023-10-09T08:59:27;98721.63;;;12.97;44.19
49297;BME280;35163;48.878;18.040;2023-10-09T09:01:54;98705.97;;;12.99;44.62
49297;BME280;35163;48.878;18.040;2023-10-09T09:07:00;98709.25;;;13.04;45.36
49297;BME280;35163;48.878;18.040;2023-10-09T09:09:28;98740.28;;;13.07;45.98
49297;BME280;35163;48.878;18.040;2023-10-09T09:11:58;98775.72;;;13.08;46.11
49297;BME280;35163;48.878;18.040;2023-10-09T09:14:38;98793.81;;;13.11;46.45
49297;BME280;35163;48.878;18.040;2023-10-09T09:17:06;98799.81;;;13.12;46.03
49297;BME280;35163;48.878;18.040;2023-10-09T09:19:38;98793.69;;;13.15;46.31
49297;BME280;35163;48.878;18.040;2023-10-09T09:22:05;98805.81;;;13.14;46.28
49297;BME280;35163;48.878;18.040;2023-10-09T09:24:40;98795.44;;;13.14;46.05
49297;BME280;35163;48.878;18.040;2023-10-09T09:27:14;98780.75;;;13.13;45.61
49297;BME280;35163;48.878;18.040;2023-10-09T09:29:58;98786.69;;;13.17;46.53
49297;BME280;35163;48.878;18.040;2023-10-09T09:32:33;98789.28;;;13.17;46.95
49297;BME280;35163;48.878;18.040;2023-10-09T09:35:05;98801.31;;;13.19;46.78
49297;BME280;35163;48.878;18.040;2023-10-09T09:37:52;98812.50;;;13.21;46.77
49297;BME280;35163;48.878;18.040;2023-10-09T09:40:20;98814.34;;;13.18;46.62
49297;BME280;35163;48.878;18.040;2023-10-09T09:43:08;98772.13;;;13.12;47.25
49297;BME280;35163;48.878;18.040;2023-10-09T09:45:48;98758.22;;;13.13;48.82
49297;BME280;35163;48.878;18.040;2023-10-09T09:48:19;98759.13;;;13.12;49.44
49297;BME280;35163;48.878;18.040;2023-10-09T09:50:46;98776.47;;;13.12;50.85
49297;BME280;35163;48.878;18.040;2023-10-09T09:53:15;98779.06;;;13.12;51.17
49297;BME280;35163;48.878;18.040;2023-10-09T09:55:54;98785.09;;;13.12;51.03
49297;BME280;35163;48.878;18.040;2023-10-09T09:58:25;98791.09;;;13.15;51.74
49297;BME280;35163;48.878;18.040;2023-10-09T10:01:13;98785.91;;;13.15;51.95
49297;BME280;35163;48.878;18.040;2023-10-09T10:03:50;98767.84;;;13.11;52.86
49297;BME280;35163;48.878;18.040;2023-10-09T10:06:19;98777.31;;;13.12;53.72
49297;BME280;35163;48.878;18.040;2023-10-09T10:08:48;98777.38;;;13.11;53.87
49297;BME280;35163;48.878;18.040;2023-10-09T10:14:14;98795.59;;;13.09;54.95
49297;BME280;35163;48.878;18.040;2023-10-09T10:17:02;98797.28;;;13.10;54.97
49297;BME280;35163;48.878;18.040;2023-10-09T10:20:05;98794.00;;;13.05;55.62
49297;BME280;35163;48.878;18.040;2023-10-09T10:22:45;98794.00;;;13.05;55.42
49297;BME280;35163;48.878;18.040;2023-10-09T10:28:27;98782.88;;;13.02;58.30
49297;BME280;35163;48.878;18.040;2023-10-09T10:31:10;98779.56;;;12.98;58.35
49297;BME280;35163;48.878;18.040;2023-10-09T10:34:03;98774.31;;;12.99;59.08
49297;BME280;35163;48.878;18.040;2023-10-09T10:36:33;98770.94;;;12.97;59.23
49297;BME280;35163;48.878;18.040;2023-10-09T10:41:56;98737.41;;;12.91;60.07
49297;BME280;35163;48.878;18.040;2023-10-09T10:44:26;98738.38;;;12.88;59.03
49297;BME280;35163;48.878;18.040;2023-10-09T10:47:12;98733.13;;;12.90;59.55
49297;BME280;35163;48.878;18.040;2023-10-09T10:49:59;98731.50;;;12.87;60.75
49297;BME280;35163;48.878;18.040;2023-10-09T10:52:37;98734.97;;;12.86;61.31
49297;BME280;35163;48.878;18.040;2023-10-09T10:55:13;98738.31;;;12.90;60.69
49297;BME280;35163;48.878;18.040;2023-10-09T10:57:58;98735.78;;;12.88;61.89
49297;BME280;35163;48.878;18.040;2023-10-09T11:00:29;98732.38;;;12.86;62.20
49297;BME280;35163;48.878;18.040;2023-10-09T11:03:21;98723.59;;;12.91;62.44
49297;BME280;35163;48.878;18.040;2023-10-09T11:06:03;98718.41;;;12.91;61.35
49297;BME280;35163;48.878;18.040;2023-10-09T11:08:45;98730.56;;;12.88;61.25
49297;BME280;35163;48.878;18.040;2023-10-09T11:11:22;98741.88;;;12.87;62.22
49297;BME280;35163;48.878;18.040;2023-10-09T11:13:49;98744.47;;;12.87;63.12
49297;BME280;35163;48.878;18.040;2023-10-09T11:16:25;98741.81;;;12.89;62.67
49297;BME280;35163;48.878;18.040;2023-10-09T11:19:01;98718.47;;;12.89;63.07
49297;BME280;35163;48.878;18.040;2023-10-09T11:21:39;98714.88;;;12.92;63.20
49297;BME280;35163;48.878;18.040;2023-10-09T11:24:09;98699.44;;;12.88;64.24
49297;BME280;35163;48.878;18.040;2023-10-09T11:26:51;98721.88;;;12.90;63.91
49297;BME280;35163;48.878;18.040;2023-10-09T11:29:25;98728.66;;;12.94;64.82
49297;BME280;35163;48.878;18.040;2023-10-09T11:32:19;98728.78;;;12.91;62.82
49297;BME280;35163;48.878;18.040;2023-10-09T11:35:01;98712.28;;;12.92;63.51
49297;BME280;35163;48.878;18.040;2023-10-09T11:37:35;98704.63;;;12.88;62.28
49297;BME280;35163;48.878;18.040;2023-10-09T11:40:06;98702.94;;;12.87;62.72
49297;BME280;35163;48.878;18.040;2023-10-09T11:42:50;98702.94;;;12.87;62.31
49297;BME280;35163;48.878;18.040;2023-10-09T11:45:25;98690.91;;;12.85;63.18
49297;BME280;35163;48.878;18.040;2023-10-09T11:47:57;98708.22;;;12.84;63.02
49297;BME280;35163;48.878;18.040;2023-10-09T11:50:42;98708.22;;;12.84;62.88
49297;BME280;35163;48.878;18.040;2023-10-09T11:53:15;98711.72;;;12.83;63.47
49297;BME280;35163;48.878;18.040;2023-10-09T11:55:51;98711.72;;;12.83;62.80
49297;BME280;35163;48.878;18.040;2023-10-09T11:58:20;98710.06;;;12.82;62.96
49297;BME280;35163;48.878;18.040;2023-10-09T12:03:26;98711.84;;;12.80;62.98
49297;BME280;35163;48.878;18.040;2023-10-09T12:06:01;98701.47;;;12.80;63.93
49297;BME280;35163;48.878;18.040;2023-10-09T12:08:33;98690.19;;;12.81;63.92
49297;BME280;35163;48.878;18.040;2023-10-09T12:11:01;98692.78;;;12.81;63.13
49297;BME280;35163;48.878;18.040;2023-10-09T12:13:31;98690.19;;;12.81;63.86
49297;BME280;35163;48.878;18.040;2023-10-09T12:15:58;98691.16;;;12.79;63.53
49297;BME280;35163;48.878;18.040;2023-10-09T12:18:25;98686.03;;;12.77;64.37
49297;BME280;35163;48.878;18.040;2023-10-09T12:20:52;98681.56;;;12.81;64.29
49297;BME280;35163;48.878;18.040;2023-10-09T12:23:21;98698.81;;;12.82;63.89
49297;BME280;35163;48.878;18.040;2023-10-09T12:25:49;98705.75;;;12.81;64.12
49297;BME280;35163;48.878;18.040;2023-10-09T12:28:17;98698.94;;;12.79;64.60
49297;BME280;35163;48.878;18.040;2023-10-09T12:30:47;98696.41;;;12.77;64.43
49297;BME280;35163;48.878;18.040;2023-10-09T12:33:21;98713.81;;;12.73;64.92
49297;BME280;35163;48.878;18.040;2023-10-09T12:35:55;98714.75;;;12.71;64.71
49297;BME280;35163;48.878;18.040;2023-10-09T12:38:28;98717.34;;;12.71;64.75
49297;BME280;35163;48.878;18.040;2023-10-09T12:43:35;98710.53;;;12.68;64.86
49297;BME280;35163;48.878;18.040;2023-10-09T12:46:06;98715.56;;;12.73;64.84
49297;BME280;35163;48.878;18.040;2023-10-09T12:48:34;98699.13;;;12.72;65.23
49297;BME280;35163;48.878;18.040;2023-10-09T12:51:02;98675.06;;;12.69;65.27
49297;BME280;35163;48.878;18.040;2023-10-09T12:53:33;98656.13;;;12.67;65.65
49297;BME280;35163;48.878;18.040;2023-10-09T12:56:00;98657.84;;;12.66;66.18
49297;BME280;35163;48.878;18.040;2023-10-09T12:58:27;98672.47;;;12.69;65.89
49297;BME280;35163;48.878;18.040;2023-10-09T13:00:54;98652.50;;;12.71;66.13
49297;BME280;35163;48.878;18.040;2023-10-09T13:03:20;98632.78;;;12.67;66.20
49297;BME280;35163;48.878;18.040;2023-10-09T13:05:55;98624.13;;;12.66;66.66
49297;BME280;35163;48.878;18.040;2023-10-09T13:08:26;98632.78;;;12.67;66.76
49297;BME280;35163;48.878;18.040;2023-10-09T13:11:06;98644.81;;;12.68;66.23
49297;BME280;35163;48.878;18.040;2023-10-09T13:13:40;98647.53;;;12.64;66.50
49297;BME280;35163;48.878;18.040;2023-10-09T13:16:09;98648.34;;;12.67;66.31
49297;BME280;35163;48.878;18.040;2023-10-09T13:18:40;98657.00;;;12.66;66.54
49297;BME280;35163;48.878;18.040;2023-10-09T13:21:06;98654.31;;;12.69;66.24
49297;BME280;35163;48.878;18.040;2023-10-09T13:23:34;98656.06;;;12.68;66.94
49297;BME280;35163;48.878;18.040;2023-10-09T13:26:08;98659.50;;;12.69;67.15
49297;BME280;35163;48.878;18.040;2023-10-09T13:29:00;98651.81;;;12.66;66.85
49297;BME280;35163;48.878;18.040;2023-10-09T13:31:28;98653.47;;;12.68;66.91
49297;BME280;35163;48.878;18.040;2023-10-09T13:33:58;98641.38;;;12.67;66.89
49297;BME280;35163;48.878;18.040;2023-10-09T13:36:28;98647.41;;;12.68;67.53
49297;BME280;35163;48.878;18.040;2023-10-09T13:39:02;98649.06;;;12.70;67.11
49297;BME280;35163;48.878;18.040;2023-10-09T13:41:52;98645.56;;;12.71;67.14
49297;BME280;35163;48.878;18.040;2023-10-09T13:44:27;98643.81;;;12.72;67.28
49297;BME280;35163;48.878;18.040;2023-10-09T13:47:01;98642.06;;;12.72;67.83
49297;BME280;35163;48.878;18.040;2023-10-09T13:49:32;98623.88;;;12.74;67.40
49297;BME280;35163;48.878;18.040;2023-10-09T13:52:00;98623.88;;;12.74;67.87